Time;durP1;ratioP1;P1;durP2;ratioP2;P2;SDS_P1;SDS_P2;PMS_P1;PMS_P2;Temp;Humidity;BMP_temperature;BMP_pressure;BME280_temperature;BME280_humidity;BME280_pressure;Samples;Min_cycle;Max_cycle;Signal;HPM_P1;HPM_P2
2023/01/31 00:01:08;;;;;;;32.13;2.97;;;1.30;99.90;;;;;;5007494;28;20062;-73
2023/01/31 00:03:34;;;;;;;17.60;2.00;;;1.30;99.90;;;;;;5007931;28;20037;-73
2023/01/31 00:06:18;;;;;;;19.83;2.30;;;1.30;99.90;;;;;;5005388;28;20461;-72
2023/01/31 00:08:46;;;;;;;18.83;2.33;;;1.20;99.90;;;;;;4983629;28;20106;-72
2023/01/31 00:11:12;;;;;;;20.75;2.05;;;1.20;99.90;;;;;;4998543;28;20077;-72
2023/01/31 00:13:38;;;;;;;18.30;1.92;;;1.20;99.90;;;;;;4996796;28;20077;-72
2023/01/31 00:16:05;;;;;;;17.87;2.17;;;1.10;99.90;;;;;;4989089;28;20073;-73
2023/01/31 00:18:30;;;;;;;14.77;1.67;;;1.10;99.90;;;;;;5004192;28;20541;-73
2023/01/31 00:20:56;;;;;;;15.23;2.00;;;1.00;99.90;;;;;;5008255;28;20037;-73
2023/01/31 00:23:22;;;;;;;19.17;2.70;;;1.00;99.90;;;;;;5001396;28;20122;-72
2023/01/31 00:25:47;;;;;;;15.07;2.13;;;1.00;99.90;;;;;;5001650;28;20097;-73
2023/01/31 00:28:13;;;;;;;14.80;2.03;;;1.00;99.90;;;;;;4999458;28;20107;-72
2023/01/31 00:30:39;;;;;;;16.47;2.00;;;1.00;99.90;;;;;;4990170;28;20030;-73
2023/01/31 00:33:04;;;;;;;18.93;2.47;;;1.00;99.90;;;;;;4985977;28;20046;-72
2023/01/31 00:35:30;;;;;;;15.03;2.00;;;1.10;99.90;;;;;;5001820;28;20069;-72
2023/01/31 00:37:56;;;;;;;17.63;1.60;;;1.10;99.90;;;;;;5007668;28;20034;-72
2023/01/31 00:40:21;;;;;;;21.17;2.33;;;1.10;99.90;;;;;;4975190;28;20030;-73
2023/01/31 00:42:47;;;;;;;17.97;1.83;;;1.20;99.90;;;;;;5005591;28;20148;-72
2023/01/31 00:45:13;;;;;;;14.90;1.70;;;1.20;99.90;;;;;;5006449;28;20041;-72
2023/01/31 00:47:38;;;;;;;14.43;2.30;;;1.30;99.90;;;;;;5006397;28;20490;-73
2023/01/31 00:50:04;;;;;;;18.03;2.17;;;1.30;99.90;;;;;;4994021;28;20045;-73
2023/01/31 00:52:30;;;;;;;15.13;2.58;;;1.30;99.90;;;;;;4995160;28;20095;-73
2023/01/31 00:54:56;;;;;;;27.35;3.60;;;1.30;99.90;;;;;;4995305;28;20076;-73
2023/01/31 00:57:22;;;;;;;19.40;2.97;;;1.30;99.90;;;;;;5009616;28;20350;-72
2023/01/31 00:59:48;;;;;;;15.05;1.70;;;1.30;99.90;;;;;;4995138;28;20065;-72
2023/01/31 01:02:14;;;;;;;19.93;3.00;;;1.30;99.90;;;;;;5011644;28;20062;-72
2023/01/31 01:04:39;;;;;;;22.63;2.10;;;1.40;99.90;;;;;;4975342;28;20026;-72
2023/01/31 01:07:05;;;;;;;19.43;2.70;;;1.40;99.90;;;;;;4995741;28;20104;-72
2023/01/31 01:09:31;;;;;;;20.53;2.03;;;1.50;99.90;;;;;;5012259;28;20517;-73
2023/01/31 01:11:57;;;;;;;25.40;2.70;;;1.60;99.90;;;;;;5010174;28;20050;-72
2023/01/31 01:14:22;;;;;;;19.47;2.33;;;1.60;99.90;;;;;;4997217;28;20053;-72
2023/01/31 01:16:52;;;;;;;22.33;2.43;;;1.70;99.90;;;;;;4991822;28;20042;-72
2023/01/31 01:19:18;;;;;;;24.02;2.85;;;1.80;99.90;;;;;;5013546;28;20052;-72
2023/01/31 01:21:44;;;;;;;16.27;2.15;;;1.90;99.90;;;;;;5012345;28;20100;-72
2023/01/31 01:24:16;;;;;;;18.52;2.05;;;2.00;99.90;;;;;;4995026;28;20042;-72
2023/01/31 01:26:42;;;;;;;16.27;2.53;;;2.00;99.90;;;;;;5013369;28;20470;-72
2023/01/31 01:29:08;;;;;;;21.38;2.63;;;2.00;99.90;;;;;;4998723;28;20049;-72
2023/01/31 01:31:36;;;;;;;15.60;2.40;;;2.00;99.90;;;;;;5027733;28;20045;-72
2023/01/31 01:34:10;;;;;;;17.63;2.05;;;2.10;99.90;;;;;;5009225;28;20052;-72
2023/01/31 01:36:36;;;;;;;15.40;1.60;;;2.10;99.90;;;;;;5009472;28;20406;-73
2023/01/31 01:39:08;;;;;;;17.30;2.15;;;2.10;99.90;;;;;;5009730;28;20379;-73
2023/01/31 01:41:34;;;;;;;21.45;2.20;;;2.20;99.90;;;;;;4996148;28;20072;-72
2023/01/31 01:44:04;;;;;;;17.15;2.05;;;2.20;99.90;;;;;;5012560;28;20503;-73
2023/01/31 01:46:35;;;;;;;20.02;1.90;;;2.20;99.90;;;;;;5012031;28;20029;-72
2023/01/31 01:49:16;;;;;;;13.20;1.52;;;2.20;99.90;;;;;;5008694;28;20433;-72
2023/01/31 01:51:43;;;;;;;17.58;2.55;;;2.30;99.90;;;;;;5003183;28;20180;-72
2023/01/31 01:54:14;;;;;;;17.42;2.55;;;2.40;99.90;;;;;;5007868;28;20133;-73
2023/01/31 01:56:45;;;;;;;16.75;2.15;;;2.40;99.90;;;;;;5010398;28;20125;-72
2023/01/31 01:59:20;;;;;;;19.70;2.20;;;2.50;99.90;;;;;;5006295;28;20049;-73
2023/01/31 02:01:46;;;;;;;;;;;2.60;99.90;;;;;;5007408;28;20808;-73
2023/01/31 02:04:15;;;;;;;22.35;3.45;;;2.60;99.90;;;;;;5007388;28;19917;-73
2023/01/31 02:06:42;;;;;;;14.27;2.05;;;2.70;99.90;;;;;;5009305;28;20037;-73
2023/01/31 02:09:19;;;;;;;18.50;2.55;;;2.70;99.90;;;;;;5010613;28;20042;-72
2023/01/31 02:11:45;;;;;;;20.55;2.42;;;2.80;99.90;;;;;;5010753;28;20077;-73
2023/01/31 02:14:11;;;;;;;18.03;2.57;;;2.90;99.90;;;;;;5010120;28;20038;-72
2023/01/31 02:16:37;;;;;;;15.15;2.03;;;2.90;99.90;;;;;;4994607;28;20549;-73
2023/01/31 02:19:07;;;;;;;20.80;3.17;;;3.00;99.90;;;;;;4977854;28;20042;-73
2023/01/31 02:22:08;;;;;;;18.17;2.53;;;3.00;99.90;;;;;;5010449;28;20414;-73
2023/01/31 02:25:05;;;;;;;16.52;1.92;;;3.00;99.90;;;;;;5010859;28;20029;-73
2023/01/31 02:27:59;;;;;;;16.30;1.55;;;3.00;99.90;;;;;;5004662;28;20059;-72
2023/01/31 02:30:37;;;;;;;21.95;4.07;;;3.00;99.90;;;;;;5006499;28;20719;-72
2023/01/31 02:33:21;;;;;;;19.60;3.13;;;2.90;99.90;;;;;;5007126;28;20038;-72
2023/01/31 02:36:23;;;;;;;17.52;1.95;;;2.90;99.90;;;;;;5005981;28;20106;-72
2023/01/31 02:39:21;;;;;;;14.02;1.70;;;2.90;99.90;;;;;;5026459;28;20494;-73
2023/01/31 02:42:18;;;;;;;15.32;2.08;;;2.80;99.90;;;;;;4995302;28;20080;-73
2023/01/31 02:44:59;;;;;;;13.75;1.75;;;2.80;99.90;;;;;;5008482;28;20037;-72
2023/01/31 02:47:34;;;;;;;18.25;1.67;;;2.80;99.90;;;;;;5006659;28;20428;-73
2023/01/31 02:50:11;;;;;;;19.95;2.03;;;2.80;99.90;;;;;;5010351;28;20038;-72
2023/01/31 02:53:22;;;;;;;15.50;2.20;;;2.90;99.90;;;;;;4993193;28;20046;-72
2023/01/31 02:56:16;;;;;;;15.00;2.05;;;2.90;99.90;;;;;;4993602;28;20491;-72
2023/01/31 02:59:05;;;;;;;15.50;2.65;;;2.90;99.90;;;;;;5010974;28;20536;-72
2023/01/31 03:01:45;;;;;;;19.40;2.33;;;3.00;99.90;;;;;;4988753;28;20924;-72
2023/01/31 03:04:12;;;;;;;17.45;2.42;;;3.10;99.90;;;;;;4991132;28;20341;-72
2023/01/31 03:06:58;;;;;;;15.05;2.15;;;3.20;99.90;;;;;;5004775;28;20202;-72
2023/01/31 03:09:35;;;;;;;;;;;3.30;99.90;;;;;;5012239;28;20046;-72
2023/01/31 03:12:32;;;;;;;20.25;2.50;;;3.40;99.90;;;;;;5011594;28;19927;-72
2023/01/31 03:15:07;;;;;;;21.65;2.85;;;3.40;99.90;;;;;;5009558;28;20048;-72
2023/01/31 03:17:52;;;;;;;20.33;3.17;;;3.50;99.90;;;;;;4994119;28;20109;-72
2023/01/31 03:20:28;;;;;;;19.67;3.00;;;3.50;99.90;;;;;;5024593;28;20137;-72
2023/01/31 03:22:59;;;;;;;21.90;2.47;;;3.50;99.90;;;;;;5006997;28;20042;-72
2023/01/31 03:25:29;;;;;;;20.20;2.88;;;3.60;99.90;;;;;;5012345;28;20049;-72
2023/01/31 03:27:58;;;;;;;21.83;3.58;;;3.60;99.90;;;;;;5005760;28;20064;-72
2023/01/31 03:30:48;;;;;;;16.52;2.88;;;3.60;99.90;;;;;;5012577;28;20042;-72
2023/01/31 03:33:21;;;;;;;25.73;3.38;;;3.70;99.90;;;;;;4995797;28;20042;-72
2023/01/31 03:35:56;;;;;;;24.40;3.17;;;3.70;99.90;;;;;;5011534;28;20048;-72
2023/01/31 03:38:27;;;;;;;18.67;3.67;;;3.80;99.90;;;;;;4992373;28;20050;-72
2023/01/31 03:41:13;;;;;;;19.90;3.28;;;3.80;99.90;;;;;;5005955;28;20499;-72
2023/01/31 03:43:43;;;;;;;;;;;3.80;99.90;;;;;;5010901;28;20057;-72
2023/01/31 03:46:16;;;;;;;26.10;4.20;;;3.90;99.90;;;;;;5010124;28;20020;-72
2023/01/31 03:48:46;;;;;;;19.65;2.85;;;3.90;99.90;;;;;;5010205;28;20065;-72
2023/01/31 03:51:18;;;;;;;22.33;3.92;;;3.90;99.90;;;;;;5027404;28;20042;-72
2023/01/31 03:54:02;;;;;;;19.33;3.10;;;3.90;99.90;;;;;;5011358;28;20096;-72
2023/01/31 03:56:37;;;;;;;17.23;3.35;;;4.00;99.90;;;;;;5008296;28;20586;-72
2023/01/31 03:59:09;;;;;;;22.52;2.92;;;4.00;99.90;;;;;;4991093;28;20062;-72
2023/01/31 04:01:40;;;;;;;22.17;3.78;;;4.00;99.90;;;;;;5005861;28;20056;-72
2023/01/31 04:04:20;;;;;;;20.85;4.13;;;4.00;99.90;;;;;;5011576;28;20050;-72
2023/01/31 04:06:46;;;;;;;23.27;3.53;;;4.00;99.90;;;;;;5009829;28;20038;-72
2023/01/31 04:09:12;;;;;;;16.60;3.33;;;4.10;99.90;;;;;;5004303;28;20046;-72
2023/01/31 04:11:39;;;;;;;29.63;3.53;;;4.10;99.90;;;;;;4994576;28;20276;-72
2023/01/31 04:14:06;;;;;;;26.15;3.50;;;4.10;99.90;;;;;;5010174;28;20335;-72
2023/01/31 04:16:32;;;;;;;26.92;3.97;;;4.10;99.90;;;;;;5009408;28;20042;-72
2023/01/31 04:18:57;;;;;;;24.70;3.90;;;4.10;99.90;;;;;;5009479;28;20041;-72
2023/01/31 04:21:23;;;;;;;30.40;4.33;;;4.10;99.90;;;;;;4977579;28;20038;-72
2023/01/31 04:23:49;;;;;;;19.17;4.27;;;4.10;99.90;;;;;;5011687;28;20045;-72
2023/01/31 04:26:15;;;;;;;26.67;4.07;;;4.10;99.90;;;;;;5010727;28;20117;-72
2023/01/31 04:28:40;;;;;;;25.30;3.97;;;4.10;99.90;;;;;;5011089;28;20187;-72
2023/01/31 04:31:06;;;;;;;28.10;3.77;;;4.10;99.90;;;;;;5007294;28;20042;-72
2023/01/31 04:33:32;;;;;;;25.00;4.20;;;4.10;99.90;;;;;;5011484;28;20099;-72
2023/01/31 04:35:58;;;;;;;26.27;4.57;;;4.10;99.90;;;;;;4995574;28;20509;-72
2023/01/31 04:38:23;;;;;;;30.13;4.17;;;4.10;99.90;;;;;;5011190;28;20121;-72
2023/01/31 04:40:49;;;;;;;32.33;3.80;;;4.10;99.90;;;;;;5010496;28;20054;-72
2023/01/31 04:43:15;;;;;;;27.50;3.73;;;4.10;99.90;;;;;;5010567;28;20552;-72
2023/01/31 04:45:41;;;;;;;28.77;4.20;;;4.10;99.90;;;;;;4994457;28;20137;-72
2023/01/31 04:48:07;;;;;;;26.83;4.07;;;4.10;99.90;;;;;;4993807;28;20517;-72
2023/01/31 04:50:33;;;;;;;25.17;4.43;;;4.10;99.90;;;;;;4993556;28;20045;-72
2023/01/31 04:52:59;;;;;;;26.87;4.40;;;4.00;99.90;;;;;;4994448;28;20497;-72
2023/01/31 04:55:26;;;;;;;27.13;4.18;;;3.90;99.90;;;;;;5010356;28;20074;-72
2023/01/31 04:57:52;;;;;;;26.33;4.30;;;3.90;99.90;;;;;;4992535;28;20038;-72
2023/01/31 05:00:18;;;;;;;24.73;4.17;;;3.80;99.90;;;;;;4992150;28;20116;-72
2023/01/31 05:02:44;;;;;;;25.15;4.25;;;3.80;99.90;;;;;;5009150;28;20082;-72
2023/01/31 05:05:11;;;;;;;27.15;3.88;;;3.80;99.90;;;;;;4990769;28;20034;-72
2023/01/31 05:07:38;;;;;;;27.63;3.80;;;3.80;99.90;;;;;;4972834;28;20406;-72
2023/01/31 05:10:04;;;;;;;29.83;4.32;;;3.90;99.90;;;;;;4992220;28;20049;-72
2023/01/31 05:12:30;;;;;;;22.40;3.67;;;3.90;99.90;;;;;;4992553;28;20593;-72
2023/01/31 05:14:55;;;;;;;34.37;5.33;;;4.00;99.90;;;;;;4993443;28;20124;-72
2023/01/31 05:17:28;;;;;;;32.63;4.80;;;4.10;99.90;;;;;;4992940;28;20050;-72
2023/01/31 05:19:57;;;;;;;33.58;4.07;;;4.20;99.90;;;;;;5008102;28;20045;-72
2023/01/31 05:22:23;;;;;;;22.08;4.35;;;4.20;99.90;;;;;;5008869;28;20069;-72
2023/01/31 05:24:49;;;;;;;21.67;3.58;;;4.30;99.90;;;;;;5010292;28;20053;-73
2023/01/31 05:27:16;;;;;;;32.87;5.03;;;4.30;99.90;;;;;;5004154;28;20034;-72
2023/01/31 05:29:42;;;;;;;27.33;4.50;;;4.40;99.90;;;;;;5009927;28;20038;-72
2023/01/31 05:32:07;;;;;;;30.27;5.37;;;4.40;99.90;;;;;;5009357;28;20552;-72
2023/01/31 05:34:34;;;;;;;28.10;4.00;;;4.50;99.90;;;;;;5009911;28;20124;-72
2023/01/31 05:37:00;;;;;;;22.60;3.83;;;4.50;99.90;;;;;;4996528;28;20042;-73
2023/01/31 05:39:26;;;;;;;26.58;4.35;;;4.50;99.90;;;;;;5014910;28;20047;-73
2023/01/31 05:41:52;;;;;;;33.88;6.57;;;4.60;99.90;;;;;;5013032;28;20042;-73
2023/01/31 05:44:19;;;;;;;26.77;4.97;;;4.70;99.90;;;;;;4998149;28;20044;-73
2023/01/31 05:46:44;;;;;;;35.53;6.43;;;4.70;99.90;;;;;;4992948;28;20379;-73
2023/01/31 05:49:11;;;;;;;25.70;5.30;;;4.80;99.90;;;;;;5014640;28;20038;-73
2023/01/31 05:51:37;;;;;;;27.42;4.55;;;4.70;99.90;;;;;;4998230;28;20050;-73
2023/01/31 05:54:03;;;;;;;23.85;4.63;;;4.70;99.90;;;;;;4998120;28;20494;-73
2023/01/31 05:56:29;;;;;;;24.77;5.07;;;4.80;99.90;;;;;;5011689;28;20096;-72
2023/01/31 05:58:55;;;;;;;18.10;3.50;;;4.80;99.90;;;;;;5010728;28;20324;-72
2023/01/31 06:01:23;;;;;;;22.33;4.10;;;4.80;99.90;;;;;;5000823;28;20086;-73
2023/01/31 06:03:49;;;;;;;34.78;5.22;;;4.90;99.90;;;;;;5007737;28;20132;-73
2023/01/31 06:06:15;;;;;;;25.25;4.80;;;4.90;99.90;;;;;;5007890;28;20041;-72
2023/01/31 06:08:41;;;;;;;17.13;3.55;;;4.90;99.90;;;;;;5005703;28;20034;-72
2023/01/31 06:11:07;;;;;;;20.40;4.13;;;5.00;99.90;;;;;;5005135;28;20639;-72
2023/01/31 06:13:33;;;;;;;20.35;4.05;;;5.00;99.90;;;;;;5012008;28;20038;-73
2023/01/31 06:15:59;;;;;;;24.73;4.07;;;5.10;99.90;;;;;;4976629;28;20056;-73
2023/01/31 06:18:25;;;;;;;23.53;4.30;;;5.10;99.90;;;;;;4994017;28;20052;-72
2023/01/31 06:20:51;;;;;;;23.10;4.67;;;5.20;99.90;;;;;;5006379;28;20116;-73
2023/01/31 06:23:18;;;;;;;20.50;3.70;;;5.20;99.90;;;;;;5012473;28;20057;-73
2023/01/31 06:25:43;;;;;;;21.38;3.42;;;5.20;99.90;;;;;;4993129;28;20119;-72
2023/01/31 06:28:09;;;;;;;26.23;3.40;;;5.20;99.90;;;;;;5008457;28;20156;-72
2023/01/31 06:30:35;;;;;;;15.90;3.25;;;5.20;99.90;;;;;;5009335;28;20042;-73
2023/01/31 06:33:01;;;;;;;23.83;3.70;;;5.20;99.90;;;;;;5013600;28;20056;-72
2023/01/31 06:35:27;;;;;;;19.13;3.20;;;5.20;99.90;;;;;;5010946;28;20407;-72
2023/01/31 06:37:54;;;;;;;23.13;3.87;;;5.20;99.90;;;;;;5010912;28;20053;-72
2023/01/31 06:40:20;;;;;;;16.63;2.90;;;5.20;99.90;;;;;;5007982;28;20129;-72
2023/01/31 06:42:46;;;;;;;22.93;3.30;;;5.20;99.90;;;;;;4979065;28;20076;-72
2023/01/31 06:45:11;;;;;;;23.03;3.60;;;5.10;99.90;;;;;;5011725;28;20049;-72
2023/01/31 06:47:37;;;;;;;23.73;2.97;;;5.10;99.90;;;;;;5010433;28;20073;-72
2023/01/31 06:50:03;;;;;;;18.47;2.87;;;5.10;99.90;;;;;;5014282;28;20061;-72
2023/01/31 06:52:29;;;;;;;25.48;3.38;;;5.10;99.90;;;;;;4995131;28;20042;-72
2023/01/31 06:54:54;;;;;;;18.43;3.30;;;5.10;99.90;;;;;;4997108;28;20054;-73
2023/01/31 06:57:20;;;;;;;22.70;3.40;;;5.00;99.90;;;;;;5013398;28;20133;-72
2023/01/31 06:59:46;;;;;;;21.20;3.10;;;5.00;99.90;;;;;;5011194;28;20096;-73
2023/01/31 07:02:12;;;;;;;29.33;5.10;;;5.00;99.90;;;;;;5012790;28;20050;-72
2023/01/31 07:04:37;;;;;;;20.70;3.47;;;5.00;99.90;;;;;;4996121;28;20042;-72
2023/01/31 07:07:03;;;;;;;24.50;3.37;;;5.00;99.90;;;;;;4995962;28;20053;-72
2023/01/31 07:09:29;;;;;;;25.87;3.17;;;5.00;99.90;;;;;;4996498;28;20045;-73
2023/01/31 07:11:54;;;;;;;22.37;3.23;;;5.00;99.90;;;;;;5015170;28;20525;-72
2023/01/31 07:14:20;;;;;;;14.03;2.70;;;4.90;99.90;;;;;;5013936;28;20056;-72
2023/01/31 07:16:46;;;;;;;19.17;2.70;;;5.00;99.90;;;;;;4996958;28;20049;-72
2023/01/31 07:19:12;;;;;;;17.63;2.27;;;5.00;99.90;;;;;;5013032;28;20052;-73
2023/01/31 07:21:37;;;;;;;20.40;2.93;;;5.00;99.90;;;;;;4995455;28;20148;-72
2023/01/31 07:24:03;;;;;;;20.17;3.17;;;4.90;99.90;;;;;;5013130;28;20050;-72
2023/01/31 07:26:29;;;;;;;16.70;3.10;;;4.90;99.90;;;;;;5010365;28;20039;-72
2023/01/31 07:28:55;;;;;;;15.80;2.00;;;4.90;99.90;;;;;;5012823;28;20300;-72
2023/01/31 07:31:21;;;;;;;12.23;2.90;;;4.90;99.90;;;;;;4997329;28;20050;-72
2023/01/31 07:33:47;;;;;;;19.17;2.53;;;4.90;99.90;;;;;;5012456;28;20088;-73
2023/01/31 07:36:18;;;;;;;16.60;2.60;;;4.90;99.90;;;;;;5013103;28;20062;-73
2023/01/31 07:38:44;;;;;;;16.35;2.08;;;4.90;99.90;;;;;;5012594;28;20046;-73
2023/01/31 07:41:10;;;;;;;17.37;2.40;;;5.00;99.90;;;;;;5012737;28;20057;-73
2023/01/31 07:43:36;;;;;;;18.83;3.08;;;5.00;99.90;;;;;;4997939;28;20041;-73
2023/01/31 07:46:07;;;;;;;18.33;2.97;;;5.00;99.90;;;;;;4997668;28;20038;-73
2023/01/31 07:48:33;;;;;;;12.45;2.35;;;5.00;99.90;;;;;;5013976;28;20797;-73
2023/01/31 07:51:00;;;;;;;22.83;2.90;;;5.10;99.90;;;;;;4999458;28;20049;-73
2023/01/31 07:53:29;;;;;;;20.05;2.83;;;5.10;99.90;;;;;;5015526;28;20125;-73
2023/01/31 07:55:55;;;;;;;25.17;3.13;;;5.10;99.90;;;;;;5009582;28;20042;-73
2023/01/31 07:58:20;;;;;;;19.50;2.40;;;5.10;99.90;;;;;;4994932;28;20077;-72
2023/01/31 08:03:33;;;;;;;17.90;3.70;;;5.20;99.90;;;;;;5009272;28;20042;-72
2023/01/31 08:06:11;;;;;;;18.42;3.55;;;5.20;99.90;;;;;;4993145;28;20102;-73
2023/01/31 08:08:38;;;;;;;19.40;4.53;;;5.20;99.90;;;;;;5012103;28;20410;-73
2023/01/31 08:11:04;;;;;;;18.45;3.83;;;5.20;99.90;;;;;;5015199;28;20613;-73
2023/01/31 08:13:31;;;;;;;22.20;3.63;;;5.20;99.90;;;;;;5013105;28;20065;-73
2023/01/31 08:15:57;;;;;;;22.38;4.32;;;5.30;99.90;;;;;;4980986;28;20073;-73
2023/01/31 08:18:23;;;;;;;19.10;4.28;;;5.30;99.90;;;;;;5008029;28;20042;-72
2023/01/31 08:20:49;;;;;;;21.67;4.50;;;5.30;99.90;;;;;;5006341;28;20048;-72
2023/01/31 08:23:14;;;;;;;26.00;4.27;;;5.40;99.90;;;;;;5010189;28;20046;-73
2023/01/31 08:25:40;;;;;;;29.03;4.80;;;5.40;99.90;;;;;;5014807;28;20042;-73
2023/01/31 08:28:06;;;;;;;22.63;3.43;;;5.50;99.90;;;;;;5007628;28;20034;-72
2023/01/31 08:30:32;;;;;;;17.63;2.90;;;5.50;99.90;;;;;;5010682;28;20048;-71
2023/01/31 08:32:58;;;;;;;25.40;3.47;;;5.50;99.90;;;;;;5011093;28;20046;-72
2023/01/31 08:35:25;;;;;;;19.55;2.92;;;5.50;99.90;;;;;;4997945;28;20041;-73
2023/01/31 08:37:51;;;;;;;24.52;3.70;;;5.50;99.90;;;;;;4992653;28;20038;-72
2023/01/31 08:40:17;;;;;;;33.38;4.38;;;5.50;99.90;;;;;;5015095;28;20048;-74
2023/01/31 08:42:55;;;;;;;23.60;3.77;;;5.60;99.90;;;;;;4996734;28;20035;-73
2023/01/31 08:45:21;;;;;;;24.60;4.03;;;5.60;99.90;;;;;;4996986;28;21042;-73
2023/01/31 08:47:47;;;;;;;26.30;3.88;;;5.60;99.90;;;;;;5012659;28;20076;-72
2023/01/31 08:50:13;;;;;;;25.27;3.93;;;5.60;99.90;;;;;;4996943;28;20620;-73
2023/01/31 08:52:39;;;;;;;22.07;3.53;;;5.60;99.90;;;;;;5016467;28;20045;-73
2023/01/31 08:55:07;;;;;;;18.60;3.40;;;5.60;99.90;;;;;;5009758;28;20460;-73
2023/01/31 08:57:36;;;;;;;19.38;4.57;;;5.60;99.90;;;;;;5010567;28;20410;-72
2023/01/31 09:00:02;;;;;;;20.93;3.63;;;5.70;99.90;;;;;;5009859;28;20062;-73
2023/01/31 09:02:27;;;;;;;18.45;2.83;;;5.70;99.90;;;;;;5012122;28;20228;-72
2023/01/31 09:04:53;;;;;;;25.17;4.53;;;5.70;99.90;;;;;;4996475;28;20050;-72
2023/01/31 09:07:20;;;;;;;21.93;3.63;;;5.70;99.90;;;;;;4978906;28;20062;-73
2023/01/31 09:09:47;;;;;;;26.70;4.30;;;5.80;99.90;;;;;;5012674;28;20034;-73
2023/01/31 09:12:19;;;;;;;24.73;4.32;;;5.80;99.90;;;;;;5014678;28;20133;-73
2023/01/31 09:14:44;;;;;;;21.53;3.93;;;5.80;99.90;;;;;;5012827;28;20136;-72
2023/01/31 09:17:10;;;;;;;24.47;4.77;;;5.90;99.90;;;;;;4984035;28;20104;-72
2023/01/31 09:19:36;;;;;;;25.10;3.80;;;5.90;99.90;;;;;;4983491;28;20053;-73
2023/01/31 09:22:02;;;;;;;30.38;4.40;;;5.90;99.90;;;;;;4999118;28;20046;-72
2023/01/31 09:24:28;;;;;;;26.10;4.60;;;6.00;99.90;;;;;;5014733;28;20456;-73
2023/01/31 09:26:55;;;;;;;24.30;4.17;;;6.00;99.90;;;;;;5016807;28;20478;-74
2023/01/31 09:29:21;;;;;;;22.42;3.13;;;6.10;99.90;;;;;;5011946;28;20045;-73
2023/01/31 09:31:50;;;;;;;19.03;3.40;;;6.10;99.90;;;;;;5031661;28;20053;-73
2023/01/31 09:34:16;;;;;;;24.52;4.10;;;6.20;99.90;;;;;;5000365;28;20045;-73
2023/01/31 09:36:43;;;;;;;17.03;3.50;;;6.20;99.90;;;;;;5014659;28;20398;-72
2023/01/31 09:39:11;;;;;;;24.90;4.25;;;6.20;99.90;;;;;;5010559;28;20042;-73
2023/01/31 09:41:57;;;;;;;24.75;3.63;;;6.20;99.90;;;;;;4997503;28;20034;-73
2023/01/31 09:44:32;;;;;;;25.95;3.45;;;6.20;99.90;;;;;;4997441;28;20045;-73
2023/01/31 09:47:27;;;;;;;20.63;3.17;;;6.20;99.90;;;;;;4999355;28;20077;-73
2023/01/31 09:50:01;;;;;;;20.90;3.33;;;6.20;99.90;;;;;;5016521;28;20667;-73
2023/01/31 09:52:29;;;;;;;22.67;3.38;;;6.20;99.90;;;;;;5017592;28;20033;-74
2023/01/31 09:54:56;;;;;;;23.63;3.50;;;6.10;99.90;;;;;;5017162;28;20040;-74
2023/01/31 09:57:53;;;;;;;23.05;3.88;;;6.10;99.90;;;;;;5013567;28;20061;-73
2023/01/31 10:00:56;;;;;;;22.38;4.05;;;6.10;99.90;;;;;;5006500;28;20053;-73
2023/01/31 10:03:40;;;;;;;18.98;3.70;;;6.10;99.90;;;;;;5012743;28;20073;-73
2023/01/31 10:06:21;;;;;;;18.98;3.95;;;6.10;99.90;;;;;;4996928;28;20042;-73
2023/01/31 10:09:06;;;;;;;24.90;4.32;;;6.10;99.90;;;;;;5009414;28;20121;-73
2023/01/31 10:11:45;;;;;;;17.40;3.28;;;6.10;99.90;;;;;;4998492;28;20049;-71
2023/01/31 10:14:36;;;;;;;23.55;3.70;;;6.20;99.90;;;;;;5014344;28;20029;-71
2023/01/31 10:17:32;;;;;;;19.90;3.22;;;6.20;99.90;;;;;;5010565;28;20042;-71
2023/01/31 10:20:16;;;;;;;22.05;3.63;;;6.20;99.90;;;;;;5011080;28;20521;-70
2023/01/31 10:22:49;;;;;;;20.20;3.28;;;6.30;99.90;;;;;;5015984;28;20029;-70
2023/01/31 10:25:43;;;;;;;23.77;3.08;;;6.30;99.90;;;;;;5011201;28;20272;-70
2023/01/31 10:28:08;;;;;;;21.63;3.28;;;6.30;99.90;;;;;;5007633;28;20046;-71
2023/01/31 10:31:15;;;;;;;28.80;3.33;;;6.30;99.90;;;;;;5012802;28;20068;-70
2023/01/31 10:34:05;;;;;;;17.27;3.58;;;6.40;99.90;;;;;;5010956;28;20085;-71
2023/01/31 10:36:56;;;;;;;21.85;3.15;;;6.40;99.90;;;;;;5015413;28;20041;-71
2023/01/31 10:39:44;;;;;;;17.95;3.10;;;6.50;99.90;;;;;;5006719;28;20137;-71
2023/01/31 10:42:31;;;;;;;16.02;2.67;;;6.50;99.90;;;;;;5012571;28;20490;-71
2023/01/31 10:45:09;;;;;;;21.33;3.25;;;6.50;99.90;;;;;;5010648;28;20065;-71
2023/01/31 10:47:59;;;;;;;16.25;2.53;;;6.60;99.90;;;;;;5013389;28;20033;-71
2023/01/31 10:50:33;;;;;;;16.88;3.22;;;6.60;99.90;;;;;;5010436;28;20048;-71
2023/01/31 10:53:27;;;;;;;19.42;3.20;;;6.70;99.90;;;;;;5002932;28;20045;-71
2023/01/31 10:56:05;;;;;;;16.92;3.53;;;6.70;99.90;;;;;;5018257;28;20313;-71
2023/01/31 10:58:31;;;;;;;18.05;3.78;;;6.80;99.90;;;;;;5014422;28;20065;-70
2023/01/31 11:00:57;;;;;;;21.90;4.28;;;6.80;99.90;;;;;;4993714;28;20050;-71
2023/01/31 11:03:24;;;;;;;19.30;3.38;;;6.80;99.90;;;;;;5012877;28;20041;-71
2023/01/31 11:05:55;;;;;;;18.30;3.22;;;6.80;99.90;;;;;;5011549;28;20042;-71
2023/01/31 11:08:44;;;;;;;14.73;2.70;;;6.90;99.90;;;;;;5006339;28;20041;-71
2023/01/31 11:11:19;;;;;;;23.95;4.00;;;6.90;99.90;;;;;;5002605;28;20048;-71
2023/01/31 11:14:01;;;;;;;21.23;2.97;;;7.00;99.90;;;;;;5014020;28;20064;-71
2023/01/31 11:16:37;;;;;;;19.85;3.35;;;7.10;99.90;;;;;;4995442;28;20565;-71
2023/01/31 11:19:14;;;;;;;19.00;2.92;;;7.10;99.90;;;;;;4996431;28;20065;-71
2023/01/31 11:21:40;;;;;;;23.05;2.97;;;7.20;99.90;;;;;;5008839;28;20037;-71
2023/01/31 11:24:20;;;;;;;20.77;3.17;;;7.20;99.90;;;;;;4999291;28;20518;-71
2023/01/31 11:27:23;;;;;;;20.63;3.33;;;7.20;99.90;;;;;;5009091;28;20563;-71
2023/01/31 11:29:49;;;;;;;23.67;4.10;;;7.30;99.90;;;;;;5006764;28;20042;-71
2023/01/31 11:32:22;;;;;;;17.67;3.45;;;7.40;99.90;;;;;;5008549;28;20501;-71
2023/01/31 11:35:14;;;;;;;21.33;4.18;;;7.40;99.90;;;;;;5006704;28;20084;-71
2023/01/31 11:37:52;;;;;;;16.15;3.17;;;7.50;99.90;;;;;;5004854;28;20446;-72
2023/01/31 11:40:29;;;;;;;18.40;2.92;;;7.60;99.90;;;;;;5006710;28;20645;-72
2023/01/31 11:43:23;;;;;;;20.75;3.17;;;7.70;99.90;;;;;;4991955;28;20563;-73
2023/01/31 11:46:02;;;;;;;16.23;3.30;;;7.80;99.90;;;;;;5029410;28;20045;-73
2023/01/31 11:48:42;;;;;;;20.77;3.00;;;8.00;99.90;;;;;;5004150;28;20034;-72
2023/01/31 11:51:11;;;;;;;16.65;2.88;;;8.10;99.90;;;;;;4990801;28;20038;-72
2023/01/31 11:53:49;;;;;;;15.93;3.92;;;8.20;99.90;;;;;;5011683;28;20077;-73
2023/01/31 11:56:29;;;;;;;18.83;3.60;;;8.20;99.90;;;;;;5008543;28;20109;-73
2023/01/31 11:59:06;;;;;;;22.58;3.60;;;8.20;99.90;;;;;;4996851;28;20041;-73
2023/01/31 12:01:47;;;;;;;16.95;3.42;;;8.20;99.90;;;;;;5008770;28;20046;-73
2023/01/31 12:04:29;;;;;;;21.98;4.15;;;8.20;99.90;;;;;;4995532;28;20045;-73
2023/01/31 12:07:01;;;;;;;22.27;3.58;;;8.20;99.90;;;;;;5009751;28;20092;-73
2023/01/31 12:09:29;;;;;;;33.50;14.05;;;8.30;99.90;;;;;;5009939;28;20045;-72
2023/01/31 12:12:05;;;;;;;25.77;4.00;;;8.20;99.90;;;;;;5010760;28;20081;-72
2023/01/31 12:14:39;;;;;;;;;;;8.20;99.90;;;;;;5008715;28;20042;-72
2023/01/31 12:17:06;;;;;;;21.23;3.63;;;8.20;99.90;;;;;;5010018;28;19917;-72
2023/01/31 12:19:31;;;;;;;18.77;3.55;;;8.20;99.90;;;;;;4985159;28;20432;-72
2023/01/31 12:22:16;;;;;;;17.47;3.13;;;8.20;99.90;;;;;;4992916;28;20042;-73
2023/01/31 12:24:56;;;;;;;18.52;3.67;;;8.20;99.90;;;;;;4993488;28;20057;-73
2023/01/31 12:27:40;;;;;;;23.52;3.75;;;8.30;99.90;;;;;;5012691;28;20048;-73
2023/01/31 12:30:22;;;;;;;18.23;3.80;;;8.40;99.90;;;;;;5028552;28;20042;-73
2023/01/31 12:33:15;;;;;;;18.50;3.75;;;8.40;99.90;;;;;;5027508;28;20128;-73
2023/01/31 12:35:52;;;;;;;18.23;3.05;;;8.40;99.90;;;;;;5007924;28;20038;-73
2023/01/31 12:38:40;;;;;;;18.63;2.47;;;8.40;99.90;;;;;;5004593;28;20913;-72
2023/01/31 12:41:35;;;;;;;21.77;3.72;;;8.40;99.90;;;;;;5004737;28;20045;-72
2023/01/31 12:44:23;;;;;;;19.48;3.63;;;8.50;99.90;;;;;;4999047;28;20461;-72
2023/01/31 12:46:51;;;;;;;19.52;3.75;;;8.50;99.90;;;;;;4992730;28;20043;-72
2023/01/31 12:49:28;;;;;;;15.70;3.20;;;8.70;99.90;;;;;;5028543;28;20077;-72
2023/01/31 12:52:15;;;;;;;16.70;3.78;;;8.80;99.90;;;;;;5010091;28;20046;-72
2023/01/31 12:54:59;;;;;;;15.88;2.97;;;8.90;99.90;;;;;;5013374;28;20674;-72
2023/01/31 12:58:04;;;;;;;15.23;3.10;;;9.10;99.90;;;;;;5008337;28;20037;-72
2023/01/31 13:00:46;;;;;;;13.43;3.10;;;9.40;99.90;;;;;;5007093;28;20683;-72
2023/01/31 13:03:40;;;;;;;19.95;3.80;;;9.40;99.90;;;;;;5002805;28;20446;-73
2023/01/31 13:06:14;;;;;;;17.35;3.85;;;9.40;99.90;;;;;;4991275;28;20046;-73
2023/01/31 13:08:45;;;;;;;12.27;2.28;;;9.30;99.90;;;;;;5010266;28;20087;-73
2023/01/31 13:11:28;;;;;;;17.48;3.88;;;9.10;99.90;;;;;;5015162;28;20096;-73
2023/01/31 13:13:59;;;;;;;23.17;3.13;;;8.90;99.90;;;;;;5008860;28;20093;-73
2023/01/31 13:16:30;;;;;;;20.90;2.97;;;8.80;99.90;;;;;;5008157;28;20049;-73